KSAT

San Antonio International Airport

San Antonio, Texas, USA
METAR KSAT 151551Z 32006KT 10SM FEW250 12/M07 A3028 RMK AO2 SLP243 T01171067
Observed Flight Rules
Dec-15 @ 15:51 UTC (13 minutes ago) Visual Flight Rules
Wind Visibility Clouds
320° at 6 knots 10 miles
  • Few at 25,000' AGL
Temperatures Readings
Current 12°C / 54°F
Dewpoint -7°C / 19°F
Humidity 26%
Altimeter 30.28" Hg
Pressure 1024.3 hPa
Elevation 243
METAR KSAT 151551Z 32006KT 10SM FEW250 12/M07 A3028 RMK AO2 SLP243 T01171067
Observed Flight Rules
Dec-15 @ 15:51 UTC
(13 minutes ago)
VFR
Wind Visibility
320° at 6 knots 10 miles
Clouds
  • Few at 25,000' AGL
Temperature Dewpoint
12°C / 54°F -7°C / 19°F
Humidity Altimeter Pressure
26% 30.28" Hg 1024.3 hPa